Lake Williams, North Dakota
Current Conditions -  °F | °C
As of 2:15 AM on Saturday 25 Oct 2014 (Local Time) from K46D Reporting Station
Clear Clear  
Wind Chill: 32°   Ceiling: Unl
Heat Index: 39°   Visibility: 10mi
Dew Point: 32°   Wind: 13mph
Humidity: 75%   Direction: 270°W
Pressure: 30.03"   Gusts: NA
Location:  47.1582°N, 99.6833°W
Report Text: K46D 250715Z AUTO 27011KT 10SM CLR 04/00 A3003 RMK AO2
Loading
Personal Weather Stations






























Interactive Weather Map
Tropical Storm Tracking
New forecast layout! Learn more

10-Day Weather Forecast

Advertisements
Track Severe Weather on mobile